createdAt,value
2022-08-16T00:01:09.577Z,20.30
2022-08-16T00:03:59.817Z,20.30
2022-08-16T00:06:49.549Z,20.30
2022-08-16T00:09:39.287Z,20.20
2022-08-16T00:12:31.839Z,20.20
2022-08-16T00:15:24.370Z,20.20
2022-08-16T00:18:13.127Z,20.20
2022-08-16T00:21:03.823Z,20.10
2022-08-16T00:23:52.071Z,20.10
2022-08-16T00:26:44.460Z,20.00
2022-08-16T00:29:33.895Z,20.00
2022-08-16T00:32:22.849Z,20.10
2022-08-16T00:35:15.788Z,20.00
2022-08-16T00:38:40.051Z,20.00
2022-08-16T00:41:13.801Z,20.00
2022-08-16T00:44:10.925Z,20.00
2022-08-16T00:47:06.505Z,20.10
2022-08-16T00:49:56.395Z,20.00
2022-08-16T00:52:46.015Z,20.00
2022-08-16T00:55:44.041Z,20.10
2022-08-16T00:58:34.946Z,20.00
2022-08-16T01:01:24.915Z,20.00
2022-08-16T01:04:29.092Z,20.00
2022-08-16T01:07:18.673Z,20.00
2022-08-16T01:10:16.072Z,20.00
2022-08-16T01:13:07.961Z,20.10
2022-08-16T01:15:58.582Z,20.00
2022-08-16T01:18:53.418Z,20.10
2022-08-16T01:21:50.493Z,20.10
2022-08-16T01:24:51.776Z,20.10
2022-08-16T01:27:45.796Z,20.10
2022-08-16T01:30:36.742Z,20.00
2022-08-16T01:33:33.433Z,20.00
2022-08-16T01:36:26.626Z,20.00
2022-08-16T01:39:16.491Z,19.90
2022-08-16T01:42:13.145Z,19.90
2022-08-16T01:45:01.471Z,19.90
2022-08-16T01:47:52.339Z,19.90
2022-08-16T01:51:08.429Z,19.90
2022-08-16T01:53:55.255Z,19.80
2022-08-16T01:56:44.384Z,19.70
2022-08-16T01:59:37.193Z,19.70
2022-08-16T02:02:27.284Z,19.70
2022-08-16T02:05:17.133Z,19.70
2022-08-16T02:08:06.514Z,19.60
2022-08-16T02:10:55.597Z,19.60
2022-08-16T02:13:44.130Z,19.50
2022-08-16T02:16:33.832Z,19.50
2022-08-16T02:19:22.482Z,19.40
2022-08-16T02:22:33.874Z,19.40
2022-08-16T02:25:24.357Z,19.40
2022-08-16T02:28:12.591Z,19.40
2022-08-16T02:31:08.968Z,19.40
2022-08-16T02:33:58.469Z,19.40
2022-08-16T02:36:49.677Z,19.40
2022-08-16T02:39:39.052Z,19.30
2022-08-16T02:42:29.707Z,19.30
2022-08-16T02:45:19.490Z,19.30
2022-08-16T02:48:29.727Z,19.30
2022-08-16T02:51:19.038Z,19.30
2022-08-16T02:54:13.756Z,19.30
2022-08-16T02:57:05.742Z,19.30
2022-08-16T02:59:56.488Z,19.20
2022-08-16T03:02:45.613Z,19.20
2022-08-16T03:05:44.013Z,19.20
2022-08-16T03:08:51.858Z,19.20
2022-08-16T03:11:41.483Z,19.20
2022-08-16T03:14:29.761Z,19.20
2022-08-16T03:17:18.288Z,19.10
2022-08-16T03:20:08.396Z,19.10
2022-08-16T03:23:01.894Z,19.10
2022-08-16T03:25:51.691Z,19.10
2022-08-16T03:28:41.345Z,19.10
2022-08-16T03:31:34.897Z,19.10
2022-08-16T03:34:29.273Z,19.00
2022-08-16T03:37:17.990Z,19.00
2022-08-16T03:40:09.493Z,19.00
2022-08-16T03:43:21.503Z,18.90
2022-08-16T03:46:10.727Z,18.90
2022-08-16T03:48:58.907Z,18.80
2022-08-16T03:51:47.138Z,18.80
2022-08-16T03:54:35.951Z,18.80
2022-08-16T03:57:24.619Z,18.80
2022-08-16T04:00:35.901Z,18.80
2022-08-16T04:03:29.960Z,18.80
2022-08-16T04:06:18.199Z,18.80
2022-08-16T04:09:06.518Z,18.70
2022-08-16T04:12:00.852Z,18.70
2022-08-16T04:14:49.902Z,18.70
2022-08-16T04:17:41.972Z,18.70
2022-08-16T04:20:34.018Z,18.70
2022-08-16T04:23:25.538Z,18.70
2022-08-16T04:26:16.760Z,18.70
2022-08-16T04:29:14.946Z,18.70
2022-08-16T04:32:09.941Z,18.80
2022-08-16T04:35:03.404Z,18.80
2022-08-16T04:37:54.944Z,18.70
2022-08-16T04:40:43.206Z,18.80
2022-08-16T04:43:38.573Z,18.80
2022-08-16T04:47:02.765Z,18.90
2022-08-16T04:49:46.203Z,18.90
2022-08-16T04:52:36.229Z,18.90
2022-08-16T04:55:37.588Z,19.00
2022-08-16T04:58:45.775Z,19.00
2022-08-16T05:01:55.258Z,19.10
2022-08-16T05:04:42.906Z,19.20
2022-08-16T05:07:31.112Z,19.20
2022-08-16T05:10:22.907Z,19.20
2022-08-16T05:13:15.766Z,19.20
2022-08-16T05:16:04.438Z,19.20
2022-08-16T05:18:57.032Z,19.30
2022-08-16T05:21:46.829Z,19.40
2022-08-16T05:24:35.054Z,19.40
2022-08-16T05:27:24.762Z,19.50
2022-08-16T05:30:36.849Z,19.50
2022-08-16T05:33:25.836Z,19.60
2022-08-16T05:36:15.493Z,19.60
2022-08-16T05:39:10.128Z,19.70
2022-08-16T05:41:58.728Z,19.70
2022-08-16T05:44:49.290Z,19.80
2022-08-16T05:47:43.508Z,19.90
2022-08-16T05:50:33.975Z,19.90
2022-08-16T05:53:24.290Z,20.00
2022-08-16T05:56:13.093Z,20.10
2022-08-16T05:59:08.165Z,20.10
2022-08-16T06:01:57.819Z,20.20
2022-08-16T06:04:47.010Z,20.30
2022-08-16T06:07:35.254Z,20.30
2022-08-16T06:10:32.977Z,20.40
2022-08-16T06:13:21.844Z,20.50
2022-08-16T06:16:18.227Z,20.60
2022-08-16T06:19:08.354Z,20.70
2022-08-16T06:21:57.266Z,20.80
2022-08-16T06:24:53.327Z,20.80
2022-08-16T06:27:57.198Z,20.90
2022-08-16T06:30:47.620Z,20.90
2022-08-16T06:33:41.779Z,21.00
2022-08-16T06:36:32.173Z,21.00
2022-08-16T06:39:20.716Z,21.10
2022-08-16T06:42:08.913Z,21.20
2022-08-16T06:44:57.105Z,21.20
2022-08-16T06:47:53.356Z,21.30
2022-08-16T06:50:44.739Z,21.40
2022-08-16T06:53:36.807Z,21.50
2022-08-16T06:56:25.240Z,21.50
2022-08-16T06:59:13.450Z,21.60
2022-08-16T07:02:01.985Z,21.60
2022-08-16T07:04:50.207Z,21.70
2022-08-16T07:07:41.225Z,21.80
2022-08-16T07:10:32.692Z,21.80
2022-08-16T07:14:03.771Z,21.80
2022-08-16T07:16:29.949Z,21.90
2022-08-16T07:19:19.520Z,21.90
2022-08-16T07:22:08.463Z,22.00
2022-08-16T07:25:16.991Z,22.10
2022-08-16T07:28:07.149Z,22.10
2022-08-16T07:31:02.119Z,22.20
2022-08-16T07:33:53.813Z,22.40
2022-08-16T07:36:45.115Z,22.40
2022-08-16T07:39:43.140Z,22.50
2022-08-16T07:42:35.406Z,22.60
2022-08-16T07:45:25.124Z,22.60
2022-08-16T07:48:13.654Z,22.70
2022-08-16T07:51:09.102Z,22.80
2022-08-16T07:54:02.355Z,22.90
2022-08-16T07:56:57.952Z,23.00
2022-08-16T07:59:46.580Z,23.10
2022-08-16T08:02:36.631Z,23.10
2022-08-16T08:05:35.693Z,23.20
2022-08-16T08:08:50.198Z,23.30
2022-08-16T08:11:34.155Z,23.40
2022-08-16T08:14:30.000Z,23.40
2022-08-16T08:17:19.250Z,23.50
2022-08-16T08:20:11.944Z,23.50
2022-08-16T08:23:01.747Z,23.60
2022-08-16T08:25:54.949Z,23.70
2022-08-16T08:28:44.026Z,23.80
2022-08-16T08:31:32.485Z,23.90
2022-08-16T08:34:23.742Z,23.90
2022-08-16T08:37:13.254Z,24.00
2022-08-16T08:40:02.113Z,24.10
2022-08-16T08:42:51.270Z,24.10
2022-08-16T08:45:48.162Z,24.20
2022-08-16T08:48:37.647Z,24.30
2022-08-16T08:51:25.954Z,24.40
2022-08-16T08:54:18.842Z,24.30
2022-08-16T08:57:09.201Z,24.40
2022-08-16T08:59:57.463Z,24.50
2022-08-16T09:02:52.002Z,24.60
2022-08-16T09:05:40.799Z,24.70
2022-08-16T09:08:32.488Z,24.70
2022-08-16T09:11:40.682Z,24.80
2022-08-16T09:14:30.298Z,24.80
2022-08-16T09:17:38.404Z,24.80
2022-08-16T09:20:29.251Z,24.90
2022-08-16T09:23:18.381Z,25.00
2022-08-16T09:26:45.347Z,25.00
2022-08-16T09:29:23.998Z,25.10
2022-08-16T09:32:30.658Z,25.20
2022-08-16T09:35:19.309Z,25.20
2022-08-16T09:38:08.839Z,25.40
2022-08-16T09:40:58.704Z,25.40
2022-08-16T09:44:00.346Z,25.50
2022-08-16T09:46:52.860Z,25.60
2022-08-16T09:49:43.133Z,25.60
2022-08-16T09:52:44.060Z,25.80
2022-08-16T09:55:44.628Z,25.80
2022-08-16T09:58:41.368Z,25.90
2022-08-16T10:01:43.524Z,26.00
2022-08-16T10:04:53.225Z,26.10
2022-08-16T10:07:45.414Z,26.20
2022-08-16T10:10:33.512Z,26.40
2022-08-16T10:13:20.798Z,26.50
2022-08-16T10:19:01.375Z,26.70
2022-08-16T10:21:56.337Z,26.80
2022-08-16T10:24:55.683Z,26.90
2022-08-16T10:27:56.707Z,26.90
2022-08-16T10:30:56.497Z,27.00
2022-08-16T10:33:47.586Z,27.10
2022-08-16T10:36:38.846Z,27.20
2022-08-16T10:39:40.760Z,27.30
2022-08-16T10:42:30.475Z,27.40
2022-08-16T10:45:19.660Z,27.40
2022-08-16T10:48:27.491Z,27.50
2022-08-16T10:51:17.193Z,27.70
2022-08-16T10:54:06.672Z,27.80
2022-08-16T10:57:16.563Z,27.90
2022-08-16T11:00:21.232Z,27.90
2022-08-16T11:06:21.576Z,28.10
2022-08-16T11:09:25.353Z,28.20
2022-08-16T11:12:18.517Z,28.30
2022-08-16T11:15:17.440Z,28.50
2022-08-16T11:19:04.824Z,28.60
2022-08-16T11:21:29.415Z,28.80
2022-08-16T11:24:41.751Z,29.00
2022-08-16T11:27:35.540Z,29.20
2022-08-16T11:30:37.757Z,29.10
2022-08-16T11:36:36.717Z,29.10
2022-08-16T11:39:25.389Z,29.20
2022-08-16T11:42:28.158Z,29.30
2022-08-16T11:45:19.630Z,29.40
2022-08-16T11:48:08.492Z,29.60
2022-08-16T11:50:57.298Z,29.70
2022-08-16T11:53:45.522Z,29.80
2022-08-16T11:56:51.710Z,29.70
2022-08-16T11:59:41.389Z,29.70
2022-08-16T12:02:33.048Z,29.60
2022-08-16T12:05:22.446Z,29.50
2022-08-16T12:08:12.864Z,29.60
2022-08-16T12:11:02.621Z,29.80
2022-08-16T12:13:51.436Z,30.00
2022-08-16T12:16:39.602Z,30.00
2022-08-16T12:19:38.713Z,30.00
2022-08-16T12:22:26.885Z,30.10
2022-08-16T12:25:19.220Z,30.30
2022-08-16T12:28:09.953Z,30.60
2022-08-16T12:30:58.181Z,31.00
2022-08-16T12:33:46.353Z,31.30
2022-08-16T12:36:40.303Z,31.30
2022-08-16T12:39:32.282Z,31.00
2022-08-16T12:42:20.840Z,30.90
2022-08-16T12:45:15.996Z,31.00
2022-08-16T12:48:33.713Z,31.20
2022-08-16T12:51:32.957Z,31.20
2022-08-16T12:54:37.424Z,31.40
2022-08-16T12:57:36.451Z,31.70
2022-08-16T13:00:33.595Z,31.80
2022-08-16T13:03:22.115Z,32.00
2022-08-16T13:06:12.557Z,32.30
2022-08-16T13:09:15.052Z,32.50
2022-08-16T13:12:18.942Z,32.50
2022-08-16T13:15:10.799Z,32.50
2022-08-16T13:18:00.410Z,32.20
2022-08-16T13:20:49.137Z,32.00
2022-08-16T13:23:43.646Z,31.70
2022-08-16T13:26:32.134Z,31.50
2022-08-16T13:29:21.728Z,31.30
2022-08-16T13:32:10.715Z,31.30
2022-08-16T13:35:19.079Z,31.40
2022-08-16T13:38:08.413Z,31.30
2022-08-16T13:40:58.124Z,31.10
2022-08-16T13:43:46.326Z,31.00
2022-08-16T13:46:47.679Z,31.00
2022-08-16T13:49:36.095Z,31.10
2022-08-16T13:52:25.694Z,31.50
2022-08-16T13:55:22.991Z,31.90
2022-08-16T13:58:36.965Z,32.00
2022-08-16T14:01:21.025Z,31.90
2022-08-16T14:04:10.722Z,31.70
2022-08-16T14:07:11.321Z,31.50
2022-08-16T14:09:59.500Z,31.40
2022-08-16T14:12:47.747Z,31.50
2022-08-16T14:15:36.077Z,31.60
2022-08-16T14:18:31.069Z,31.90
2022-08-16T14:21:21.976Z,32.30
2022-08-16T14:24:29.861Z,32.70
2022-08-16T14:27:21.867Z,33.20
2022-08-16T14:30:15.524Z,33.60
2022-08-16T14:33:04.374Z,34.00
2022-08-16T14:35:54.914Z,34.40
2022-08-16T14:38:44.405Z,34.40
2022-08-16T14:41:35.171Z,33.80
2022-08-16T14:44:26.275Z,33.60
2022-08-16T14:47:16.102Z,33.10
2022-08-16T14:50:05.767Z,33.20
2022-08-16T14:52:57.440Z,33.50
2022-08-16T14:55:48.557Z,33.90
2022-08-16T14:58:38.203Z,34.20
2022-08-16T15:01:26.894Z,34.50
2022-08-16T15:04:39.965Z,34.80
2022-08-16T15:07:30.576Z,34.90
2022-08-16T15:10:26.693Z,35.00
2022-08-16T15:13:20.389Z,34.90
2022-08-16T15:16:08.622Z,34.90
2022-08-16T15:18:58.632Z,34.90
2022-08-16T15:21:51.750Z,35.40
2022-08-16T15:24:42.085Z,35.70
2022-08-16T15:27:35.787Z,35.90
2022-08-16T15:30:58.510Z,36.00
2022-08-16T15:33:44.260Z,36.20
2022-08-16T15:36:33.595Z,35.50
2022-08-16T15:39:30.137Z,35.00
2022-08-16T15:42:28.892Z,35.10
2022-08-16T15:45:38.773Z,35.40
2022-08-16T15:48:33.572Z,35.50
2022-08-16T15:51:21.622Z,35.80
2022-08-16T15:54:20.832Z,36.10
2022-08-16T15:57:17.965Z,36.10
2022-08-16T16:00:14.894Z,36.40
2022-08-16T16:03:08.453Z,36.50
2022-08-16T16:06:00.844Z,36.50
2022-08-16T16:08:50.208Z,36.40
2022-08-16T16:11:38.991Z,36.00
2022-08-16T16:14:27.173Z,35.30
2022-08-16T16:17:16.815Z,35.10
2022-08-16T16:20:08.085Z,34.80
2022-08-16T16:23:10.559Z,34.60
2022-08-16T16:26:00.001Z,35.00
2022-08-16T16:29:08.141Z,35.30
2022-08-16T16:32:00.071Z,35.50
2022-08-16T16:34:48.417Z,35.50
2022-08-16T16:37:39.470Z,35.70
2022-08-16T16:40:35.383Z,35.70
2022-08-16T16:43:25.709Z,35.10
2022-08-16T16:46:40.452Z,34.50
2022-08-16T16:49:25.201Z,33.90
2022-08-16T16:52:43.687Z,33.30
2022-08-16T16:55:25.100Z,32.80
2022-08-16T16:58:36.402Z,32.40
2022-08-16T17:01:41.338Z,32.10
2022-08-16T17:04:37.109Z,31.80
2022-08-16T17:07:25.594Z,31.40
2022-08-16T17:10:46.185Z,31.20
2022-08-16T17:13:27.902Z,30.90
2022-08-16T17:16:18.824Z,30.60
2022-08-16T17:19:17.348Z,30.50
2022-08-16T17:22:07.351Z,30.30
2022-08-16T17:25:07.433Z,30.20
2022-08-16T17:27:55.854Z,30.00
2022-08-16T17:30:50.266Z,29.90
2022-08-16T17:33:54.670Z,29.70
2022-08-16T17:36:52.857Z,29.70
2022-08-16T17:39:58.100Z,29.50
2022-08-16T17:42:53.112Z,29.40
2022-08-16T17:45:42.722Z,29.10
2022-08-16T17:48:32.480Z,29.10
2022-08-16T17:51:20.717Z,29.00
2022-08-16T17:54:08.915Z,29.00
2022-08-16T17:57:09.708Z,28.90
2022-08-16T17:59:59.389Z,28.80
2022-08-16T18:02:50.194Z,28.70
2022-08-16T18:05:40.168Z,28.50
2022-08-16T18:08:30.741Z,28.50
2022-08-16T18:11:25.774Z,28.50
2022-08-16T18:14:18.045Z,28.40
2022-08-16T18:17:06.253Z,28.30
2022-08-16T18:19:54.428Z,28.30
2022-08-16T18:22:42.991Z,28.20
2022-08-16T18:25:31.463Z,28.10
2022-08-16T18:28:20.037Z,28.10
2022-08-16T18:31:09.054Z,28.00
2022-08-16T18:33:57.302Z,27.90
2022-08-16T18:36:45.488Z,27.80
2022-08-16T18:39:36.293Z,27.70
2022-08-16T18:42:24.531Z,27.70
2022-08-16T18:45:13.262Z,27.70
2022-08-16T18:48:01.914Z,27.60
2022-08-16T18:51:03.110Z,27.60
2022-08-16T18:53:54.534Z,27.60
2022-08-16T18:56:56.744Z,27.60
2022-08-16T18:59:45.868Z,27.50
2022-08-16T19:02:56.759Z,27.50
2022-08-16T19:05:44.146Z,27.40
2022-08-16T19:08:34.719Z,27.40
2022-08-16T19:11:25.715Z,27.30
2022-08-16T19:14:15.540Z,27.30
2022-08-16T19:17:04.050Z,27.30
2022-08-16T19:19:52.300Z,27.20
2022-08-16T19:25:54.337Z,27.00
2022-08-16T19:28:51.366Z,26.90
2022-08-16T19:31:48.783Z,26.90
2022-08-16T19:34:36.983Z,26.80
2022-08-16T19:37:25.733Z,26.70
2022-08-16T19:40:37.263Z,26.70
2022-08-16T19:43:23.818Z,26.60
2022-08-16T19:46:12.017Z,26.50
2022-08-16T19:49:01.588Z,26.40
2022-08-16T19:51:50.628Z,26.30
2022-08-16T19:54:40.353Z,26.20
2022-08-16T19:57:29.564Z,26.10
2022-08-16T20:00:19.069Z,26.00
2022-08-16T20:03:12.942Z,25.90
2022-08-16T20:06:02.458Z,25.90
2022-08-16T20:08:50.666Z,25.70
2022-08-16T20:11:38.901Z,25.60
2022-08-16T20:14:27.106Z,25.50
2022-08-16T20:17:15.930Z,25.40
2022-08-16T20:20:05.165Z,25.30
2022-08-16T20:22:57.546Z,25.20
2022-08-16T20:25:49.778Z,25.00
2022-08-16T20:28:51.760Z,24.90
2022-08-16T20:31:42.652Z,24.80
2022-08-16T20:34:30.978Z,24.80
2022-08-16T20:37:21.895Z,24.60
2022-08-16T20:40:28.658Z,24.50
2022-08-16T20:43:23.746Z,24.40
2022-08-16T20:46:12.203Z,24.40
2022-08-16T20:49:00.358Z,24.30
2022-08-16T20:51:51.680Z,24.30
2022-08-16T20:54:42.972Z,24.30
2022-08-16T20:57:32.497Z,24.20
2022-08-16T21:00:21.346Z,24.20
2022-08-16T21:03:10.903Z,24.10
2022-08-16T21:05:59.581Z,24.10
2022-08-16T21:08:52.008Z,24.00
2022-08-16T21:11:42.060Z,23.90
2022-08-16T21:14:34.110Z,23.80
2022-08-16T21:17:22.409Z,23.60
2022-08-16T21:20:11.519Z,23.50
2022-08-16T21:23:01.934Z,23.40
2022-08-16T21:25:57.779Z,23.40
2022-08-16T21:28:47.745Z,23.30
2022-08-16T21:31:37.552Z,23.20
2022-08-16T21:34:25.904Z,23.20
2022-08-16T21:37:15.680Z,23.20
2022-08-16T21:40:05.673Z,23.20
2022-08-16T21:42:54.077Z,23.10
2022-08-16T21:45:43.973Z,23.10
2022-08-16T21:48:35.783Z,23.00
2022-08-16T21:51:24.414Z,23.00
2022-08-16T21:54:12.637Z,22.90
2022-08-16T21:57:00.807Z,22.80
2022-08-16T21:59:51.414Z,22.70
2022-08-16T22:02:39.471Z,22.60
2022-08-16T22:05:29.005Z,22.60
2022-08-16T22:08:19.497Z,22.50
2022-08-16T22:11:09.244Z,22.40
2022-08-16T22:13:59.410Z,22.40
2022-08-16T22:16:47.727Z,22.40
2022-08-16T22:19:36.294Z,22.40
2022-08-16T22:22:25.830Z,22.30
2022-08-16T22:25:24.337Z,22.20
2022-08-16T22:28:13.532Z,22.30
2022-08-16T22:31:02.103Z,22.10
2022-08-16T22:33:50.411Z,22.00
2022-08-16T22:36:39.391Z,22.00
2022-08-16T22:39:28.998Z,21.90
2022-08-16T22:42:18.033Z,22.00
2022-08-16T22:45:07.594Z,21.90
2022-08-16T22:47:56.082Z,21.90
2022-08-16T22:50:44.810Z,21.90
2022-08-16T22:53:33.837Z,22.00
2022-08-16T22:56:24.101Z,22.00
2022-08-16T22:59:12.511Z,21.90
2022-08-16T23:02:03.127Z,21.80
2022-08-16T23:04:51.189Z,21.80
2022-08-16T23:07:39.402Z,21.70
2022-08-16T23:10:27.853Z,21.70
2022-08-16T23:13:19.912Z,21.70
2022-08-16T23:16:10.591Z,21.50
2022-08-16T23:18:59.976Z,21.50
2022-08-16T23:21:49.296Z,21.40
2022-08-16T23:24:53.371Z,21.40
2022-08-16T23:27:45.043Z,21.40
2022-08-16T23:30:40.508Z,21.30
2022-08-16T23:33:29.513Z,21.30
2022-08-16T23:36:17.749Z,21.20
2022-08-16T23:39:05.974Z,21.30
2022-08-16T23:41:54.170Z,21.30
2022-08-16T23:44:57.209Z,21.20
2022-08-16T23:47:48.881Z,21.20
2022-08-16T23:50:39.569Z,21.00
2022-08-16T23:53:28.920Z,20.90
2022-08-16T23:56:19.571Z,20.90
2022-08-16T23:59:07.758Z,20.80
